WMKMWMKP

Guest
Details From WMKM - Malacca
To WMKP - Penang Intl
Flight Number -
Tags generated
Created
Modified
Stats Distance 221 nm / 410 km
Max Altitude 6,500 ft / 1,981 m
Waypoints 5
Social Downloads 0
Likes 0
Share VATSIM

Download

Looking for another format? Having issues loading an existing format? Contact us
Advertisement - Login to hide

Notes

Basic altitude profile: - Ascent Rate: 2500ft/min - Ascent Speed: 250kts - Cruise Altitude: 5000ft - Cruise Speed: 420kts - Descent Rate: 1500ft/min - Descent Speed: 250kts

Route

WMKM BILIK A457 TEPUS WMKP

ID Type Via Altitude Latitude Longitude Leg Dist Tot Dist Heading (true) Name
O WMKM APT - 0 ft / 0 m 2.26336˚ 102.25155˚ - 0 nm - Malacca
BILIK FIX - 5,000 ft / 1,524 m 3.34528˚ 101.12750˚ 93 nm 93 nm 314° / 314° -
SUKAT FIX A457 (AWY-HI) 6,500 ft / 1,981 m 3.59028˚ 101.02000˚ 16 nm 109 nm 336° / 336° -
TEPUS FIX A457 (AWY-HI) 6,500 ft / 1,981 m 4.17028˚ 100.75917˚ 38 nm 147 nm 336° / 336° -
O WMKP APT - 0 ft / 0 m 5.29714˚ 100.27687˚ 73 nm 221 nm 337° / 337° Penang Intl

Altitude Profile

Advertisement - Login to hide

Weather


0- 5 10 15 20 25 30 35+ Temperature / ° C

Clouds and Precipitation
Forecast for 2018-05-22 18:00 UTC. Updated 29 minutes ago

Ground ~20,000 ft ~40,000 ft Winds

WMKM

Details ICAO WMKM (MKZ)
Name Malacca
Region Malaysia (Peninsular Malaysia)
Timezone Asia/Kuala_Lumpur (UTC+8.0)
Stats Elevation 35 ft / 11 m (AMSL)
Location 2.263362° 102.251553°
Runways 1
Magnetic Variation 0.065° E

METAR

WMKM 221700Z VRB02KT 9999 FEW017CB SCT140 26/24 Q1009

Decode

TAF

Not found

Departure Runways

ID Width Length Bearing (true) Bearing (mag) Surface Threshold Offset Overrun Length
03 121 ft / 37 m 4,523 ft / 1,379 m 29.93° 29.86° Asphalt 0 ft / 0 m 200 ft / 61 m
21 121 ft / 37 m 4,523 ft / 1,379 m 209.93° 209.86° Asphalt 0 ft / 0 m 200 ft / 61 m

WMKP

Details ICAO WMKP (PEN)
Name Penang Intl
Region Malaysia (Peninsular Malaysia)
Timezone Asia/Kuala_Lumpur (UTC+8.0)
Stats Elevation 11 ft / 3 m (AMSL)
Location 5.297141° 100.276865°
Runways 1
Magnetic Variation 0.199° W

METAR

WMKP 221730Z 02004KT 350V060 8000 FEW025 SCT140 BKN270 27/25 Q1009 NOSIG

Decode

TAF

TAF WMKP 221100Z 2212/2312 03005KT 9000 FEW025 SCT140 BKN270 TEMPO 2212/2216 5000 TSRA FEW010 FEW017CB BECMG 2303/2305 23009KT TEMPO 2310/2312 5000 TSRA FEW010 FEW017CB

Decode

Destination Runways

ID Width Length Bearing (true) Bearing (mag) Surface Threshold Offset Overrun Length
04 150 ft / 46 m 11,042 ft / 3,366 m 42.02° 42.22° Asphalt 0 ft / 0 m 205 ft / 62 m
22 150 ft / 46 m 11,042 ft / 3,366 m 222.02° 222.22° Asphalt 0 ft / 0 m 205 ft / 62 m

Approach Navaids

Runway Type Ident Frequency Range Bearing (true) Bearing (mag) Slope Elevation
04 Localiser IPG 109.90 MHz 18 nm / 33 km 42.88° 43.08° - 12 ft / 4 m (AMSL)
04 Glidescope IPG 109.90 MHz 10 nm / 19 km 42.02° 42.22° 3.00° 11 ft / 3 m (AMSL)
04 DME IPG 109.90 MHz 18 nm / 33 km - - - 11 ft / 3 m (AMSL)

Popular Alternatives